sensor_id;sensor_type;location;lat;lon;timestamp;P1;durP1;ratioP1;P2;durP2;ratioP2
54430;SDS011;40342;52.998;5.862;2024-03-02T00:01:24;3.20;;;1.70;;
54430;SDS011;40342;52.998;5.862;2024-03-02T00:03:49;3.15;;;1.77;;
54430;SDS011;40342;52.998;5.862;2024-03-02T00:06:17;2.25;;;1.75;;
54430;SDS011;40342;52.998;5.862;2024-03-02T00:08:45;1.77;;;1.52;;
54430;SDS011;40342;52.998;5.862;2024-03-02T00:11:11;1.98;;;1.50;;
54430;SDS011;40342;52.998;5.862;2024-03-02T00:13:39;3.15;;;1.80;;
54430;SDS011;40342;52.998;5.862;2024-03-02T00:16:04;3.13;;;1.90;;
54430;SDS011;40342;52.998;5.862;2024-03-02T00:18:31;2.08;;;1.77;;
54430;SDS011;40342;52.998;5.862;2024-03-02T00:21:00;2.58;;;1.80;;
54430;SDS011;40342;52.998;5.862;2024-03-02T00:23:29;3.60;;;1.58;;
54430;SDS011;40342;52.998;5.862;2024-03-02T00:25:58;3.45;;;1.63;;
54430;SDS011;40342;52.998;5.862;2024-03-02T00:31:03;1.97;;;1.40;;
54430;SDS011;40342;52.998;5.862;2024-03-02T00:33:37;2.85;;;1.60;;
54430;SDS011;40342;52.998;5.862;2024-03-02T00:36:07;4.20;;;1.83;;
54430;SDS011;40342;52.998;5.862;2024-03-02T00:38:34;3.42;;;1.73;;
54430;SDS011;40342;52.998;5.862;2024-03-02T00:41:06;3.40;;;1.70;;
54430;SDS011;40342;52.998;5.862;2024-03-02T00:46:27;1.98;;;1.65;;
54430;SDS011;40342;52.998;5.862;2024-03-02T00:49:00;1.77;;;1.48;;
54430;SDS011;40342;52.998;5.862;2024-03-02T00:51:27;1.92;;;1.65;;
54430;SDS011;40342;52.998;5.862;2024-03-02T00:53:55;3.08;;;1.77;;
54430;SDS011;40342;52.998;5.862;2024-03-02T00:56:23;3.42;;;1.83;;
54430;SDS011;40342;52.998;5.862;2024-03-02T00:58:49;2.20;;;1.67;;
54430;SDS011;40342;52.998;5.862;2024-03-02T01:01:15;3.13;;;1.60;;
54430;SDS011;40342;52.998;5.862;2024-03-02T01:03:41;2.00;;;1.60;;
54430;SDS011;40342;52.998;5.862;2024-03-02T01:06:07;2.97;;;2.78;;
54430;SDS011;40342;52.998;5.862;2024-03-02T01:08:34;2.75;;;2.20;;
54430;SDS011;40342;52.998;5.862;2024-03-02T01:11:00;2.85;;;2.33;;
54430;SDS011;40342;52.998;5.862;2024-03-02T01:13:26;2.92;;;2.40;;
54430;SDS011;40342;52.998;5.862;2024-03-02T01:15:52;2.40;;;1.88;;
54430;SDS011;40342;52.998;5.862;2024-03-02T01:18:18;2.10;;;1.90;;
54430;SDS011;40342;52.998;5.862;2024-03-02T01:20:44;2.53;;;2.00;;
54430;SDS011;40342;52.998;5.862;2024-03-02T01:23:10;3.50;;;2.50;;
54430;SDS011;40342;52.998;5.862;2024-03-02T01:25:35;3.72;;;2.42;;
54430;SDS011;40342;52.998;5.862;2024-03-02T01:28:01;4.45;;;1.95;;
54430;SDS011;40342;52.998;5.862;2024-03-02T01:30:27;2.25;;;2.03;;
54430;SDS011;40342;52.998;5.862;2024-03-02T01:32:52;4.15;;;2.67;;
54430;SDS011;40342;52.998;5.862;2024-03-02T01:35:18;4.20;;;1.60;;
54430;SDS011;40342;52.998;5.862;2024-03-02T01:37:44;2.63;;;2.38;;
54430;SDS011;40342;52.998;5.862;2024-03-02T01:40:09;4.63;;;2.20;;
54430;SDS011;40342;52.998;5.862;2024-03-02T01:42:36;2.38;;;1.77;;
54430;SDS011;40342;52.998;5.862;2024-03-02T01:45:04;2.42;;;1.58;;
54430;SDS011;40342;52.998;5.862;2024-03-02T01:47:31;2.15;;;1.27;;
54430;SDS011;40342;52.998;5.862;2024-03-02T01:49:57;1.33;;;1.15;;
54430;SDS011;40342;52.998;5.862;2024-03-02T01:52:24;1.48;;;1.38;;
54430;SDS011;40342;52.998;5.862;2024-03-02T01:54:49;4.00;;;1.63;;
54430;SDS011;40342;52.998;5.862;2024-03-02T01:57:15;1.63;;;1.38;;
54430;SDS011;40342;52.998;5.862;2024-03-02T01:59:41;2.75;;;1.40;;
54430;SDS011;40342;52.998;5.862;2024-03-02T02:02:06;2.13;;;1.48;;
54430;SDS011;40342;52.998;5.862;2024-03-02T02:04:32;2.47;;;1.50;;
54430;SDS011;40342;52.998;5.862;2024-03-02T02:06:58;2.45;;;1.63;;
54430;SDS011;40342;52.998;5.862;2024-03-02T02:09:25;2.75;;;1.20;;
54430;SDS011;40342;52.998;5.862;2024-03-02T02:11:50;3.28;;;1.40;;
54430;SDS011;40342;52.998;5.862;2024-03-02T02:14:17;1.73;;;1.45;;
54430;SDS011;40342;52.998;5.862;2024-03-02T02:16:42;2.42;;;1.35;;
54430;SDS011;40342;52.998;5.862;2024-03-02T02:19:08;3.55;;;1.38;;
54430;SDS011;40342;52.998;5.862;2024-03-02T02:21:34;1.80;;;1.30;;
54430;SDS011;40342;52.998;5.862;2024-03-02T02:24:00;1.30;;;0.98;;
54430;SDS011;40342;52.998;5.862;2024-03-02T02:26:28;2.85;;;1.10;;
54430;SDS011;40342;52.998;5.862;2024-03-02T02:28:54;2.60;;;1.27;;
54430;SDS011;40342;52.998;5.862;2024-03-02T02:31:19;1.52;;;1.17;;
54430;SDS011;40342;52.998;5.862;2024-03-02T02:33:45;3.00;;;1.20;;
54430;SDS011;40342;52.998;5.862;2024-03-02T02:36:10;1.17;;;1.08;;
54430;SDS011;40342;52.998;5.862;2024-03-02T02:38:37;2.08;;;1.40;;
54430;SDS011;40342;52.998;5.862;2024-03-02T02:41:05;2.92;;;1.30;;
54430;SDS011;40342;52.998;5.862;2024-03-02T02:43:31;1.75;;;1.25;;
54430;SDS011;40342;52.998;5.862;2024-03-02T02:45:57;2.33;;;1.00;;
54430;SDS011;40342;52.998;5.862;2024-03-02T02:48:22;1.77;;;1.20;;
54430;SDS011;40342;52.998;5.862;2024-03-02T02:50:48;2.10;;;1.30;;
54430;SDS011;40342;52.998;5.862;2024-03-02T02:53:14;2.10;;;1.13;;
54430;SDS011;40342;52.998;5.862;2024-03-02T02:55:39;1.90;;;1.10;;
54430;SDS011;40342;52.998;5.862;2024-03-02T02:58:06;0.85;;;0.75;;
54430;SDS011;40342;52.998;5.862;2024-03-02T03:00:32;3.55;;;1.48;;
54430;SDS011;40342;52.998;5.862;2024-03-02T03:02:57;1.33;;;1.17;;
54430;SDS011;40342;52.998;5.862;2024-03-02T03:05:23;3.03;;;0.98;;
54430;SDS011;40342;52.998;5.862;2024-03-02T03:07:49;1.83;;;1.20;;
54430;SDS011;40342;52.998;5.862;2024-03-02T03:10:15;2.60;;;1.13;;
54430;SDS011;40342;52.998;5.862;2024-03-02T03:12:41;3.72;;;1.30;;
54430;SDS011;40342;52.998;5.862;2024-03-02T03:15:08;1.42;;;1.00;;
54430;SDS011;40342;52.998;5.862;2024-03-02T03:17:34;1.30;;;1.10;;
54430;SDS011;40342;52.998;5.862;2024-03-02T03:20:01;1.95;;;1.08;;
54430;SDS011;40342;52.998;5.862;2024-03-02T03:22:28;1.23;;;1.10;;
54430;SDS011;40342;52.998;5.862;2024-03-02T03:24:55;1.17;;;0.82;;
54430;SDS011;40342;52.998;5.862;2024-03-02T03:27:20;2.20;;;0.95;;
54430;SDS011;40342;52.998;5.862;2024-03-02T03:29:46;2.05;;;0.88;;
54430;SDS011;40342;52.998;5.862;2024-03-02T03:32:12;0.65;;;0.65;;
54430;SDS011;40342;52.998;5.862;2024-03-02T03:34:38;0.70;;;0.70;;
54430;SDS011;40342;52.998;5.862;2024-03-02T03:37:03;1.85;;;0.68;;
54430;SDS011;40342;52.998;5.862;2024-03-02T03:39:29;1.10;;;0.75;;
54430;SDS011;40342;52.998;5.862;2024-03-02T03:41:55;0.93;;;0.70;;
54430;SDS011;40342;52.998;5.862;2024-03-02T03:44:20;0.50;;;0.50;;
54430;SDS011;40342;52.998;5.862;2024-03-02T03:46:46;0.63;;;0.60;;
54430;SDS011;40342;52.998;5.862;2024-03-02T03:49:12;1.13;;;0.60;;
54430;SDS011;40342;52.998;5.862;2024-03-02T03:51:37;0.35;;;0.30;;
54430;SDS011;40342;52.998;5.862;2024-03-02T03:54:03;0.77;;;0.50;;
54430;SDS011;40342;52.998;5.862;2024-03-02T03:56:28;2.85;;;0.80;;
54430;SDS011;40342;52.998;5.862;2024-03-02T03:58:54;0.35;;;0.30;;
54430;SDS011;40342;52.998;5.862;2024-03-02T04:01:20;0.60;;;0.50;;
54430;SDS011;40342;52.998;5.862;2024-03-02T04:03:47;0.30;;;0.30;;
54430;SDS011;40342;52.998;5.862;2024-03-02T04:06:13;1.27;;;0.22;;
54430;SDS011;40342;52.998;5.862;2024-03-02T04:08:39;2.15;;;0.40;;
54430;SDS011;40342;52.998;5.862;2024-03-02T04:11:06;0.40;;;0.40;;
54430;SDS011;40342;52.998;5.862;2024-03-02T04:13:33;1.10;;;0.50;;
54430;SDS011;40342;52.998;5.862;2024-03-02T04:16:00;1.55;;;0.50;;
54430;SDS011;40342;52.998;5.862;2024-03-02T04:18:26;0.20;;;0.20;;
54430;SDS011;40342;52.998;5.862;2024-03-02T04:20:52;0.75;;;0.43;;
54430;SDS011;40342;52.998;5.862;2024-03-02T04:23:17;0.82;;;0.50;;
54430;SDS011;40342;52.998;5.862;2024-03-02T04:25:43;0.77;;;0.50;;
54430;SDS011;40342;52.998;5.862;2024-03-02T04:28:08;1.08;;;0.50;;
54430;SDS011;40342;52.998;5.862;2024-03-02T04:30:34;1.00;;;0.40;;
54430;SDS011;40342;52.998;5.862;2024-03-02T04:32:59;0.70;;;0.40;;
54430;SDS011;40342;52.998;5.862;2024-03-02T04:35:27;0.28;;;0.28;;
54430;SDS011;40342;52.998;5.862;2024-03-02T04:37:53;0.75;;;0.30;;
54430;SDS011;40342;52.998;5.862;2024-03-02T04:40:19;0.75;;;0.47;;
54430;SDS011;40342;52.998;5.862;2024-03-02T04:42:45;1.45;;;0.40;;
54430;SDS011;40342;52.998;5.862;2024-03-02T04:45:10;0.55;;;0.28;;
54430;SDS011;40342;52.998;5.862;2024-03-02T04:47:36;0.30;;;0.20;;
54430;SDS011;40342;52.998;5.862;2024-03-02T04:50:01;0.57;;;0.40;;
54430;SDS011;40342;52.998;5.862;2024-03-02T04:52:27;2.30;;;0.20;;
54430;SDS011;40342;52.998;5.862;2024-03-02T04:54:53;0.85;;;0.28;;
54430;SDS011;40342;52.998;5.862;2024-03-02T04:57:37;0.25;;;0.25;;
54430;SDS011;40342;52.998;5.862;2024-03-02T05:00:03;0.38;;;0.30;;
54430;SDS011;40342;52.998;5.862;2024-03-02T05:02:32;0.30;;;0.30;;
54430;SDS011;40342;52.998;5.862;2024-03-02T05:04:57;1.30;;;0.40;;
54430;SDS011;40342;52.998;5.862;2024-03-02T05:07:23;0.80;;;0.40;;
54430;SDS011;40342;52.998;5.862;2024-03-02T05:09:48;1.45;;;0.50;;
54430;SDS011;40342;52.998;5.862;2024-03-02T05:12:14;2.10;;;0.40;;
54430;SDS011;40342;52.998;5.862;2024-03-02T05:14:58;0.30;;;0.30;;
54430;SDS011;40342;52.998;5.862;2024-03-02T05:17:24;1.00;;;0.30;;
54430;SDS011;40342;52.998;5.862;2024-03-02T05:19:49;0.82;;;0.40;;
54430;SDS011;40342;52.998;5.862;2024-03-02T05:22:15;0.57;;;0.40;;
54430;SDS011;40342;52.998;5.862;2024-03-02T05:24:41;0.55;;;0.30;;
54430;SDS011;40342;52.998;5.862;2024-03-02T05:27:07;1.10;;;0.40;;
54430;SDS011;40342;52.998;5.862;2024-03-02T05:29:32;0.65;;;0.22;;
54430;SDS011;40342;52.998;5.862;2024-03-02T05:31:58;1.38;;;0.20;;
54430;SDS011;40342;52.998;5.862;2024-03-02T05:34:24;0.25;;;0.25;;
54430;SDS011;40342;52.998;5.862;2024-03-02T05:36:49;0.47;;;0.30;;
54430;SDS011;40342;52.998;5.862;2024-03-02T05:39:15;0.40;;;0.20;;
54430;SDS011;40342;52.998;5.862;2024-03-02T05:41:40;1.15;;;0.38;;
54430;SDS011;40342;52.998;5.862;2024-03-02T05:44:06;1.05;;;0.30;;
54430;SDS011;40342;52.998;5.862;2024-03-02T05:46:32;0.82;;;0.52;;
54430;SDS011;40342;52.998;5.862;2024-03-02T05:48:58;1.45;;;0.55;;
54430;SDS011;40342;52.998;5.862;2024-03-02T05:51:24;0.40;;;0.40;;
54430;SDS011;40342;52.998;5.862;2024-03-02T05:53:50;1.33;;;0.60;;
54430;SDS011;40342;52.998;5.862;2024-03-02T05:56:16;3.13;;;0.82;;
54430;SDS011;40342;52.998;5.862;2024-03-02T05:58:41;0.40;;;0.40;;
54430;SDS011;40342;52.998;5.862;2024-03-02T06:01:26;0.75;;;0.70;;
54430;SDS011;40342;52.998;5.862;2024-03-02T06:03:56;0.70;;;0.60;;
54430;SDS011;40342;52.998;5.862;2024-03-02T06:06:22;0.73;;;0.45;;
54430;SDS011;40342;52.998;5.862;2024-03-02T06:08:48;0.38;;;0.38;;
54430;SDS011;40342;52.998;5.862;2024-03-02T06:11:14;0.40;;;0.40;;
54430;SDS011;40342;52.998;5.862;2024-03-02T06:13:39;0.50;;;0.50;;
54430;SDS011;40342;52.998;5.862;2024-03-02T06:16:05;0.57;;;0.45;;
54430;SDS011;40342;52.998;5.862;2024-03-02T06:18:31;0.65;;;0.43;;
54430;SDS011;40342;52.998;5.862;2024-03-02T06:20:56;0.55;;;0.55;;
54430;SDS011;40342;52.998;5.862;2024-03-02T06:23:22;0.40;;;0.40;;
54430;SDS011;40342;52.998;5.862;2024-03-02T06:25:48;0.43;;;0.43;;
54430;SDS011;40342;52.998;5.862;2024-03-02T06:28:13;0.43;;;0.43;;
54430;SDS011;40342;52.998;5.862;2024-03-02T06:30:41;0.50;;;0.47;;
54430;SDS011;40342;52.998;5.862;2024-03-02T06:33:07;0.52;;;0.40;;
54430;SDS011;40342;52.998;5.862;2024-03-02T06:35:33;0.85;;;0.70;;
54430;SDS011;40342;52.998;5.862;2024-03-02T06:38:00;1.45;;;0.55;;
54430;SDS011;40342;52.998;5.862;2024-03-02T06:40:26;2.80;;;0.63;;
54430;SDS011;40342;52.998;5.862;2024-03-02T06:42:51;0.70;;;0.70;;
54430;SDS011;40342;52.998;5.862;2024-03-02T06:45:17;1.52;;;0.70;;
54430;SDS011;40342;52.998;5.862;2024-03-02T06:47:43;1.17;;;0.90;;
54430;SDS011;40342;52.998;5.862;2024-03-02T06:50:09;1.30;;;0.77;;
54430;SDS011;40342;52.998;5.862;2024-03-02T06:52:35;0.60;;;0.60;;
54430;SDS011;40342;52.998;5.862;2024-03-02T06:55:01;1.98;;;0.60;;
54430;SDS011;40342;52.998;5.862;2024-03-02T06:57:29;0.70;;;0.40;;
54430;SDS011;40342;52.998;5.862;2024-03-02T06:59:54;1.38;;;0.50;;
54430;SDS011;40342;52.998;5.862;2024-03-02T07:02:23;0.73;;;0.52;;
54430;SDS011;40342;52.998;5.862;2024-03-02T07:04:50;3.08;;;0.80;;
54430;SDS011;40342;52.998;5.862;2024-03-02T07:07:16;0.50;;;0.50;;
54430;SDS011;40342;52.998;5.862;2024-03-02T07:09:42;0.82;;;0.50;;
54430;SDS011;40342;52.998;5.862;2024-03-02T07:12:07;0.50;;;0.47;;
54430;SDS011;40342;52.998;5.862;2024-03-02T07:14:33;0.68;;;0.60;;
54430;SDS011;40342;52.998;5.862;2024-03-02T07:17:20;0.55;;;0.50;;
54430;SDS011;40342;52.998;5.862;2024-03-02T07:19:46;0.82;;;0.50;;
54430;SDS011;40342;52.998;5.862;2024-03-02T07:22:12;1.92;;;0.70;;
54430;SDS011;40342;52.998;5.862;2024-03-02T07:24:44;1.92;;;0.90;;
54430;SDS011;40342;52.998;5.862;2024-03-02T07:27:11;1.27;;;0.50;;
54430;SDS011;40342;52.998;5.862;2024-03-02T07:29:37;4.53;;;0.95;;
54430;SDS011;40342;52.998;5.862;2024-03-02T07:32:04;1.50;;;0.80;;
54430;SDS011;40342;52.998;5.862;2024-03-02T07:34:30;1.67;;;1.15;;
54430;SDS011;40342;52.998;5.862;2024-03-02T07:36:55;0.60;;;0.60;;
54430;SDS011;40342;52.998;5.862;2024-03-02T07:39:21;0.73;;;0.70;;
54430;SDS011;40342;52.998;5.862;2024-03-02T07:41:47;1.30;;;0.60;;
54430;SDS011;40342;52.998;5.862;2024-03-02T07:44:13;1.27;;;0.85;;
54430;SDS011;40342;52.998;5.862;2024-03-02T07:46:43;1.10;;;1.00;;
54430;SDS011;40342;52.998;5.862;2024-03-02T07:49:09;1.85;;;0.80;;
54430;SDS011;40342;52.998;5.862;2024-03-02T07:51:35;1.35;;;0.63;;
54430;SDS011;40342;52.998;5.862;2024-03-02T07:54:01;1.77;;;1.00;;
54430;SDS011;40342;52.998;5.862;2024-03-02T07:56:27;2.13;;;0.70;;
54430;SDS011;40342;52.998;5.862;2024-03-02T07:58:53;4.20;;;1.10;;
54430;SDS011;40342;52.998;5.862;2024-03-02T08:01:19;3.30;;;1.10;;
54430;SDS011;40342;52.998;5.862;2024-03-02T08:03:45;2.92;;;1.05;;
54430;SDS011;40342;52.998;5.862;2024-03-02T08:06:15;3.38;;;1.00;;
54430;SDS011;40342;52.998;5.862;2024-03-02T08:08:45;2.55;;;1.00;;
54430;SDS011;40342;52.998;5.862;2024-03-02T08:11:11;3.63;;;1.13;;
54430;SDS011;40342;52.998;5.862;2024-03-02T08:13:37;1.92;;;0.80;;
54430;SDS011;40342;52.998;5.862;2024-03-02T08:16:03;1.77;;;0.70;;
54430;SDS011;40342;52.998;5.862;2024-03-02T08:18:32;2.17;;;0.82;;
54430;SDS011;40342;52.998;5.862;2024-03-02T08:20:57;2.17;;;0.65;;
54430;SDS011;40342;52.998;5.862;2024-03-02T08:23:23;0.90;;;0.65;;
54430;SDS011;40342;52.998;5.862;2024-03-02T08:25:49;1.20;;;0.50;;
54430;SDS011;40342;52.998;5.862;2024-03-02T08:28:15;0.63;;;0.50;;
54430;SDS011;40342;52.998;5.862;2024-03-02T08:30:40;1.30;;;0.80;;
54430;SDS011;40342;52.998;5.862;2024-03-02T08:33:06;0.60;;;0.60;;
54430;SDS011;40342;52.998;5.862;2024-03-02T08:35:31;1.80;;;0.80;;
54430;SDS011;40342;52.998;5.862;2024-03-02T08:38:01;1.48;;;0.60;;
54430;SDS011;40342;52.998;5.862;2024-03-02T08:40:28;1.73;;;1.00;;
54430;SDS011;40342;52.998;5.862;2024-03-02T08:42:53;2.35;;;1.27;;
54430;SDS011;40342;52.998;5.862;2024-03-02T08:45:19;1.88;;;1.10;;
54430;SDS011;40342;52.998;5.862;2024-03-02T08:47:45;0.63;;;0.43;;
54430;SDS011;40342;52.998;5.862;2024-03-02T08:50:11;1.08;;;0.60;;
54430;SDS011;40342;52.998;5.862;2024-03-02T08:52:37;1.08;;;0.68;;
54430;SDS011;40342;52.998;5.862;2024-03-02T08:55:03;0.93;;;0.60;;
54430;SDS011;40342;52.998;5.862;2024-03-02T08:57:28;2.42;;;0.45;;
54430;SDS011;40342;52.998;5.862;2024-03-02T08:59:54;2.75;;;0.60;;
54430;SDS011;40342;52.998;5.862;2024-03-02T09:02:20;0.95;;;0.60;;
54430;SDS011;40342;52.998;5.862;2024-03-02T09:04:45;1.95;;;0.60;;
54430;SDS011;40342;52.998;5.862;2024-03-02T09:07:11;1.50;;;0.70;;
54430;SDS011;40342;52.998;5.862;2024-03-02T09:09:37;3.67;;;0.60;;
54430;SDS011;40342;52.998;5.862;2024-03-02T09:12:04;0.63;;;0.38;;
54430;SDS011;40342;52.998;5.862;2024-03-02T09:14:30;1.42;;;0.60;;
54430;SDS011;40342;52.998;5.862;2024-03-02T09:16:56;1.35;;;0.40;;
54430;SDS011;40342;52.998;5.862;2024-03-02T09:19:22;1.58;;;0.68;;
54430;SDS011;40342;52.998;5.862;2024-03-02T09:21:47;0.70;;;0.50;;
54430;SDS011;40342;52.998;5.862;2024-03-02T09:24:13;1.35;;;0.60;;
54430;SDS011;40342;52.998;5.862;2024-03-02T09:26:38;1.98;;;0.65;;
54430;SDS011;40342;52.998;5.862;2024-03-02T09:29:04;2.38;;;0.68;;
54430;SDS011;40342;52.998;5.862;2024-03-02T09:31:30;3.72;;;0.47;;
54430;SDS011;40342;52.998;5.862;2024-03-02T09:33:55;0.93;;;0.60;;
54430;SDS011;40342;52.998;5.862;2024-03-02T09:36:21;1.50;;;0.45;;
54430;SDS011;40342;52.998;5.862;2024-03-02T09:38:48;3.67;;;0.82;;
54430;SDS011;40342;52.998;5.862;2024-03-02T09:41:14;2.38;;;0.77;;
54430;SDS011;40342;52.998;5.862;2024-03-02T09:43:40;1.90;;;0.60;;
54430;SDS011;40342;52.998;5.862;2024-03-02T09:46:07;4.40;;;0.93;;
54430;SDS011;40342;52.998;5.862;2024-03-02T09:48:34;2.60;;;0.60;;
54430;SDS011;40342;52.998;5.862;2024-03-02T09:51:00;3.03;;;0.70;;
54430;SDS011;40342;52.998;5.862;2024-03-02T09:53:32;2.70;;;0.90;;
54430;SDS011;40342;52.998;5.862;2024-03-02T09:55:59;1.80;;;0.82;;
54430;SDS011;40342;52.998;5.862;2024-03-02T09:58:25;4.70;;;1.02;;
54430;SDS011;40342;52.998;5.862;2024-03-02T10:00:51;2.90;;;0.60;;
54430;SDS011;40342;52.998;5.862;2024-03-02T10:03:18;1.60;;;0.70;;
54430;SDS011;40342;52.998;5.862;2024-03-02T10:05:44;2.40;;;0.65;;
54430;SDS011;40342;52.998;5.862;2024-03-02T10:08:10;4.10;;;1.13;;
54430;SDS011;40342;52.998;5.862;2024-03-02T10:10:39;2.10;;;0.88;;
54430;SDS011;40342;52.998;5.862;2024-03-02T10:13:08;1.92;;;1.20;;
54430;SDS011;40342;52.998;5.862;2024-03-02T10:15:36;1.63;;;1.20;;
54430;SDS011;40342;52.998;5.862;2024-03-02T10:18:02;2.38;;;1.10;;
54430;SDS011;40342;52.998;5.862;2024-03-02T10:20:29;2.03;;;0.73;;
54430;SDS011;40342;52.998;5.862;2024-03-02T10:22:55;3.47;;;1.00;;
54430;SDS011;40342;52.998;5.862;2024-03-02T10:25:30;4.07;;;0.80;;
54430;SDS011;40342;52.998;5.862;2024-03-02T10:28:00;3.08;;;1.00;;
54430;SDS011;40342;52.998;5.862;2024-03-02T10:30:26;1.65;;;1.23;;
54430;SDS011;40342;52.998;5.862;2024-03-02T10:32:53;1.88;;;1.13;;
54430;SDS011;40342;52.998;5.862;2024-03-02T10:35:20;1.88;;;1.23;;
54430;SDS011;40342;52.998;5.862;2024-03-02T10:37:51;3.72;;;1.10;;
54430;SDS011;40342;52.998;5.862;2024-03-02T10:40:17;2.97;;;1.73;;
54430;SDS011;40342;52.998;5.862;2024-03-02T10:42:46;3.20;;;1.52;;
54430;SDS011;40342;52.998;5.862;2024-03-02T10:45:13;2.30;;;1.23;;
54430;SDS011;40342;52.998;5.862;2024-03-02T10:47:41;1.52;;;0.82;;
54430;SDS011;40342;52.998;5.862;2024-03-02T10:50:08;2.25;;;0.70;;
54430;SDS011;40342;52.998;5.862;2024-03-02T10:52:34;1.25;;;0.90;;
54430;SDS011;40342;52.998;5.862;2024-03-02T10:55:01;3.20;;;0.73;;
54430;SDS011;40342;52.998;5.862;2024-03-02T10:57:31;3.38;;;0.80;;
54430;SDS011;40342;52.998;5.862;2024-03-02T11:00:04;2.67;;;0.73;;
54430;SDS011;40342;52.998;5.862;2024-03-02T11:02:40;1.90;;;0.80;;
54430;SDS011;40342;52.998;5.862;2024-03-02T11:05:16;0.95;;;0.73;;
54430;SDS011;40342;52.998;5.862;2024-03-02T11:07:51;2.03;;;0.90;;
54430;SDS011;40342;52.998;5.862;2024-03-02T11:10:34;2.58;;;0.95;;
54430;SDS011;40342;52.998;5.862;2024-03-02T11:13:05;1.95;;;0.70;;
54430;SDS011;40342;52.998;5.862;2024-03-02T11:15:36;2.25;;;0.80;;
54430;SDS011;40342;52.998;5.862;2024-03-02T11:18:03;0.90;;;0.43;;
54430;SDS011;40342;52.998;5.862;2024-03-02T11:20:33;1.30;;;0.55;;
54430;SDS011;40342;52.998;5.862;2024-03-02T11:23:05;3.47;;;0.70;;
54430;SDS011;40342;52.998;5.862;2024-03-02T11:25:32;1.20;;;0.80;;
54430;SDS011;40342;52.998;5.862;2024-03-02T11:28:05;1.58;;;0.80;;
54430;SDS011;40342;52.998;5.862;2024-03-02T11:32:58;2.38;;;1.10;;
54430;SDS011;40342;52.998;5.862;2024-03-02T11:35:37;1.55;;;0.88;;
54430;SDS011;40342;52.998;5.862;2024-03-02T11:38:06;3.40;;;1.50;;
54430;SDS011;40342;52.998;5.862;2024-03-02T11:40:32;2.35;;;1.15;;
54430;SDS011;40342;52.998;5.862;2024-03-02T11:43:01;3.45;;;1.33;;
54430;SDS011;40342;52.998;5.862;2024-03-02T11:45:27;2.22;;;1.35;;
54430;SDS011;40342;52.998;5.862;2024-03-02T11:47:54;2.38;;;0.90;;
54430;SDS011;40342;52.998;5.862;2024-03-02T11:52:56;2.15;;;0.90;;
54430;SDS011;40342;52.998;5.862;2024-03-02T11:55:24;2.80;;;0.80;;
54430;SDS011;40342;52.998;5.862;2024-03-02T11:57:52;1.80;;;0.77;;
54430;SDS011;40342;52.998;5.862;2024-03-02T12:00:18;1.92;;;0.77;;
54430;SDS011;40342;52.998;5.862;2024-03-02T12:02:45;2.63;;;0.80;;
54430;SDS011;40342;52.998;5.862;2024-03-02T12:05:14;3.17;;;0.82;;
54430;SDS011;40342;52.998;5.862;2024-03-02T12:07:41;1.92;;;0.77;;
54430;SDS011;40342;52.998;5.862;2024-03-02T12:10:08;1.52;;;0.80;;
54430;SDS011;40342;52.998;5.862;2024-03-02T12:12:34;2.70;;;1.00;;
54430;SDS011;40342;52.998;5.862;2024-03-02T12:15:00;4.70;;;1.50;;
54430;SDS011;40342;52.998;5.862;2024-03-02T12:17:26;2.08;;;1.35;;
54430;SDS011;40342;52.998;5.862;2024-03-02T12:19:51;2.58;;;1.00;;
54430;SDS011;40342;52.998;5.862;2024-03-02T12:22:18;2.15;;;0.93;;
54430;SDS011;40342;52.998;5.862;2024-03-02T12:24:44;3.78;;;0.98;;
54430;SDS011;40342;52.998;5.862;2024-03-02T12:27:11;4.25;;;1.08;;
54430;SDS011;40342;52.998;5.862;2024-03-02T12:29:38;2.47;;;1.05;;
54430;SDS011;40342;52.998;5.862;2024-03-02T12:32:04;3.13;;;0.93;;
54430;SDS011;40342;52.998;5.862;2024-03-02T12:34:31;2.42;;;0.88;;
54430;SDS011;40342;52.998;5.862;2024-03-02T12:36:57;2.70;;;0.90;;
54430;SDS011;40342;52.998;5.862;2024-03-02T12:39:22;3.95;;;1.10;;
54430;SDS011;40342;52.998;5.862;2024-03-02T12:41:48;4.20;;;1.10;;
54430;SDS011;40342;52.998;5.862;2024-03-02T12:44:19;5.57;;;1.83;;
54430;SDS011;40342;52.998;5.862;2024-03-02T12:46:45;4.13;;;1.77;;
54430;SDS011;40342;52.998;5.862;2024-03-02T12:49:12;5.03;;;1.70;;
54430;SDS011;40342;52.998;5.862;2024-03-02T12:51:41;2.55;;;1.20;;
54430;SDS011;40342;52.998;5.862;2024-03-02T12:54:10;2.67;;;1.25;;
54430;SDS011;40342;52.998;5.862;2024-03-02T12:56:36;3.58;;;0.93;;
54430;SDS011;40342;52.998;5.862;2024-03-02T12:59:03;2.80;;;1.42;;
54430;SDS011;40342;52.998;5.862;2024-03-02T13:01:29;1.85;;;1.20;;
54430;SDS011;40342;52.998;5.862;2024-03-02T13:03:56;3.05;;;1.15;;
54430;SDS011;40342;52.998;5.862;2024-03-02T13:06:23;3.42;;;1.10;;
54430;SDS011;40342;52.998;5.862;2024-03-02T13:08:52;2.47;;;1.33;;
54430;SDS011;40342;52.998;5.862;2024-03-02T13:11:18;2.20;;;0.77;;
54430;SDS011;40342;52.998;5.862;2024-03-02T13:13:45;1.25;;;0.80;;
54430;SDS011;40342;52.998;5.862;2024-03-02T13:16:12;2.22;;;0.85;;
54430;SDS011;40342;52.998;5.862;2024-03-02T13:18:38;5.85;;;1.65;;
54430;SDS011;40342;52.998;5.862;2024-03-02T13:21:05;3.90;;;1.00;;
54430;SDS011;40342;52.998;5.862;2024-03-02T13:23:31;2.17;;;0.85;;
54430;SDS011;40342;52.998;5.862;2024-03-02T13:25:57;0.85;;;0.82;;
54430;SDS011;40342;52.998;5.862;2024-03-02T13:28:23;2.53;;;1.10;;
54430;SDS011;40342;52.998;5.862;2024-03-02T13:30:49;1.38;;;0.88;;
54430;SDS011;40342;52.998;5.862;2024-03-02T13:33:15;1.95;;;1.00;;
54430;SDS011;40342;52.998;5.862;2024-03-02T13:35:41;3.83;;;1.17;;
54430;SDS011;40342;52.998;5.862;2024-03-02T13:38:07;2.03;;;1.00;;
54430;SDS011;40342;52.998;5.862;2024-03-02T13:40:33;1.70;;;0.77;;
54430;SDS011;40342;52.998;5.862;2024-03-02T13:43:01;1.95;;;0.60;;
54430;SDS011;40342;52.998;5.862;2024-03-02T13:45:28;3.40;;;1.20;;
54430;SDS011;40342;52.998;5.862;2024-03-02T13:47:53;5.65;;;3.40;;
54430;SDS011;40342;52.998;5.862;2024-03-02T13:50:19;3.28;;;2.97;;
54430;SDS011;40342;52.998;5.862;2024-03-02T13:52:45;2.40;;;1.77;;
54430;SDS011;40342;52.998;5.862;2024-03-02T13:55:11;2.70;;;2.20;;
54430;SDS011;40342;52.998;5.862;2024-03-02T13:57:37;3.45;;;2.40;;
54430;SDS011;40342;52.998;5.862;2024-03-02T14:00:03;3.00;;;1.55;;
54430;SDS011;40342;52.998;5.862;2024-03-02T14:02:35;1.75;;;1.63;;
54430;SDS011;40342;52.998;5.862;2024-03-02T14:05:01;1.85;;;1.50;;
54430;SDS011;40342;52.998;5.862;2024-03-02T14:07:27;1.83;;;1.02;;
54430;SDS011;40342;52.998;5.862;2024-03-02T14:09:52;1.92;;;1.65;;
54430;SDS011;40342;52.998;5.862;2024-03-02T14:12:18;3.00;;;1.10;;
54430;SDS011;40342;52.998;5.862;2024-03-02T14:14:44;1.38;;;0.90;;
54430;SDS011;40342;52.998;5.862;2024-03-02T14:17:09;2.80;;;0.93;;
54430;SDS011;40342;52.998;5.862;2024-03-02T14:19:39;2.97;;;0.70;;
54430;SDS011;40342;52.998;5.862;2024-03-02T14:22:05;0.68;;;0.68;;
54430;SDS011;40342;52.998;5.862;2024-03-02T14:24:31;2.30;;;0.95;;
54430;SDS011;40342;52.998;5.862;2024-03-02T14:26:56;1.65;;;0.60;;
54430;SDS011;40342;52.998;5.862;2024-03-02T14:29:24;1.58;;;0.70;;
54430;SDS011;40342;52.998;5.862;2024-03-02T14:31:50;3.00;;;1.33;;
54430;SDS011;40342;52.998;5.862;2024-03-02T14:34:15;1.35;;;0.60;;
54430;SDS011;40342;52.998;5.862;2024-03-02T14:36:41;1.73;;;1.00;;
54430;SDS011;40342;52.998;5.862;2024-03-02T14:39:09;1.65;;;0.82;;
54430;SDS011;40342;52.998;5.862;2024-03-02T14:41:35;2.55;;;1.00;;
54430;SDS011;40342;52.998;5.862;2024-03-02T14:44:02;1.42;;;0.90;;
54430;SDS011;40342;52.998;5.862;2024-03-02T14:46:28;1.48;;;1.23;;
54430;SDS011;40342;52.998;5.862;2024-03-02T14:48:54;1.75;;;1.27;;
54430;SDS011;40342;52.998;5.862;2024-03-02T14:51:20;3.45;;;1.00;;
54430;SDS011;40342;52.998;5.862;2024-03-02T14:53:45;1.95;;;0.93;;
54430;SDS011;40342;52.998;5.862;2024-03-02T14:56:11;3.03;;;1.02;;